createdAt,value
2024-02-04T00:01:01.639Z,1019.13
2024-02-04T00:02:05.053Z,1019.13
2024-02-04T00:03:08.360Z,1019.09
2024-02-04T00:04:11.903Z,1019.05
2024-02-04T00:05:18.198Z,1019.05
2024-02-04T00:06:21.658Z,1019.03
2024-02-04T00:07:25.224Z,1019.03
2024-02-04T00:11:43.082Z,1019.01
2024-02-04T00:12:46.563Z,1018.99
2024-02-04T00:13:49.892Z,1018.99
2024-02-04T00:14:53.322Z,1018.97
2024-02-04T00:15:56.728Z,1018.97
2024-02-04T00:17:00.043Z,1018.97
2024-02-04T00:18:03.857Z,1019.03
2024-02-04T00:19:07.777Z,1018.99
2024-02-04T00:20:11.048Z,1019.01
2024-02-04T00:21:14.339Z,1018.99
2024-02-04T00:22:17.585Z,1018.95
2024-02-04T00:23:22.345Z,1018.93
2024-02-04T00:24:25.985Z,1018.91
2024-02-04T00:26:34.211Z,1018.82
2024-02-04T00:28:40.634Z,1018.8
2024-02-04T00:29:43.950Z,1018.8
2024-02-04T00:30:47.217Z,1018.8
2024-02-04T00:31:50.620Z,1018.8
2024-02-04T00:32:54.195Z,1018.78
2024-02-04T00:33:57.862Z,1018.76
2024-02-04T00:35:01.598Z,1018.72
2024-02-04T00:36:05.904Z,1018.74
2024-02-04T00:37:09.194Z,1018.76
2024-02-04T00:38:12.511Z,1018.76
2024-02-04T00:39:15.868Z,1018.76
2024-02-04T00:40:19.157Z,1018.82
2024-02-04T00:41:22.379Z,1018.84
2024-02-04T00:42:25.769Z,1018.82
2024-02-04T00:44:34.251Z,1018.82
2024-02-04T00:46:40.805Z,1018.78
2024-02-04T00:47:44.235Z,1018.74
2024-02-04T00:48:48.247Z,1018.74
2024-02-04T00:49:53.481Z,1018.74
2024-02-04T00:50:56.720Z,1018.76
2024-02-04T00:52:00.306Z,1018.72
2024-02-04T00:53:03.581Z,1018.72
2024-02-04T00:54:06.881Z,1018.74
2024-02-04T00:55:10.251Z,1018.74
2024-02-04T00:56:13.535Z,1018.74
2024-02-04T00:57:22.561Z,1018.76
2024-02-04T00:58:25.757Z,1018.74
2024-02-04T01:00:33.662Z,1018.7
2024-02-04T01:02:40.626Z,1018.74
2024-02-04T01:03:44.235Z,1018.74
2024-02-04T01:04:47.999Z,1018.74
2024-02-04T01:05:51.640Z,1018.7
2024-02-04T01:07:02.386Z,1018.7
2024-02-04T01:08:05.551Z,1018.7
2024-02-04T01:09:08.744Z,1018.7
2024-02-04T01:10:12.331Z,1018.72
2024-02-04T01:11:15.672Z,1018.72
2024-02-04T01:12:18.900Z,1018.72
2024-02-04T01:13:22.156Z,1018.74
2024-02-04T01:14:25.443Z,1018.74
2024-02-04T01:15:28.825Z,1018.74
2024-02-04T01:16:32.135Z,1018.74
2024-02-04T01:19:43.300Z,1018.72
2024-02-04T01:20:46.648Z,1018.82
2024-02-04T01:21:50.326Z,1018.78
2024-02-04T01:22:53.620Z,1018.8
2024-02-04T01:23:56.946Z,1018.78
2024-02-04T01:25:00.530Z,1018.82
2024-02-04T01:26:03.914Z,1018.84
2024-02-04T01:27:07.188Z,1018.82
2024-02-04T01:28:10.513Z,1018.82
2024-02-04T01:29:13.779Z,1018.8
2024-02-04T01:30:17.018Z,1018.82
2024-02-04T01:31:20.345Z,1018.76
2024-02-04T01:32:23.642Z,1018.7
2024-02-04T01:33:27.388Z,1018.72
2024-02-04T01:34:31.169Z,1018.76
2024-02-04T01:35:34.573Z,1018.76
2024-02-04T01:36:37.903Z,1018.76
2024-02-04T01:37:42.697Z,1018.76
2024-02-04T01:38:45.884Z,1018.76
2024-02-04T01:39:49.355Z,1018.72
2024-02-04T01:40:52.617Z,1018.7
2024-02-04T01:41:55.961Z,1018.72
2024-02-04T01:42:59.578Z,1018.72
2024-02-04T01:44:02.973Z,1018.7
2024-02-04T01:45:06.194Z,1018.7
2024-02-04T01:46:10.425Z,1018.7
2024-02-04T01:47:13.786Z,1018.7
2024-02-04T01:48:17.495Z,1018.74
2024-02-04T01:49:21.144Z,1018.72
2024-02-04T01:50:24.569Z,1018.7
2024-02-04T01:51:27.907Z,1018.6
2024-02-04T01:52:31.194Z,1018.6
2024-02-04T01:53:34.406Z,1018.62
2024-02-04T01:54:37.783Z,1018.62
2024-02-04T01:55:42.532Z,1018.68
2024-02-04T01:56:45.698Z,1018.64
2024-02-04T01:57:49.043Z,1018.62
2024-02-04T01:58:54.374Z,1018.62
2024-02-04T01:59:57.577Z,1018.58
2024-02-04T02:01:02.026Z,1018.6
2024-02-04T02:02:05.310Z,1018.6
2024-02-04T02:03:08.459Z,1018.52
2024-02-04T02:04:12.040Z,1018.56
2024-02-04T02:05:15.646Z,1018.54
2024-02-04T02:06:19.210Z,1018.62
2024-02-04T02:07:22.808Z,1018.64
2024-02-04T02:08:26.099Z,1018.64
2024-02-04T02:10:32.679Z,1018.64
2024-02-04T02:13:42.796Z,1018.52
2024-02-04T02:14:46.084Z,1018.54
2024-02-04T02:15:49.540Z,1018.5
2024-02-04T02:16:52.792Z,1018.54
2024-02-04T02:17:56.435Z,1018.54
2024-02-04T02:19:02.302Z,1018.5
2024-02-04T02:20:05.954Z,1018.46
2024-02-04T02:21:10.382Z,1018.37
2024-02-04T02:22:13.614Z,1018.37
2024-02-04T02:23:16.948Z,1018.41
2024-02-04T02:24:20.083Z,1018.43
2024-02-04T02:25:23.410Z,1018.44
2024-02-04T02:26:26.657Z,1018.46
2024-02-04T02:27:31.532Z,1018.43
2024-02-04T02:28:34.709Z,1018.44
2024-02-04T02:29:38.028Z,1018.48
2024-02-04T02:30:41.328Z,1018.48
2024-02-04T02:31:50.093Z,1018.46
2024-02-04T02:32:53.435Z,1018.44
2024-02-04T02:33:56.936Z,1018.46
2024-02-04T02:35:00.767Z,1018.46
2024-02-04T02:36:04.238Z,1018.46
2024-02-04T02:37:07.752Z,1018.43
2024-02-04T02:38:11.033Z,1018.43
2024-02-04T02:39:14.431Z,1018.44
2024-02-04T02:40:18.024Z,1018.43
2024-02-04T02:41:22.863Z,1018.37
2024-02-04T02:43:29.805Z,1018.39
2024-02-04T02:44:33.054Z,1018.41
2024-02-04T02:45:36.398Z,1018.39
2024-02-04T02:46:39.797Z,1018.35
2024-02-04T02:47:43.429Z,1018.43
2024-02-04T02:48:47.546Z,1018.39
2024-02-04T02:49:51.393Z,1018.41
2024-02-04T02:50:56.797Z,1018.44
2024-02-04T02:52:00.303Z,1018.43
2024-02-04T02:53:03.786Z,1018.43
2024-02-04T02:54:07.019Z,1018.41
2024-02-04T02:55:10.460Z,1018.37
2024-02-04T02:56:13.754Z,1018.37
2024-02-04T02:57:16.905Z,1018.37
2024-02-04T02:58:20.150Z,1018.39
2024-02-04T02:59:23.394Z,1018.41
2024-02-04T03:00:26.736Z,1018.41
2024-02-04T03:01:30.341Z,1018.37
2024-02-04T03:02:33.743Z,1018.35
2024-02-04T03:03:37.252Z,1018.37
2024-02-04T03:04:40.853Z,1018.37
2024-02-04T03:05:44.516Z,1018.35
2024-02-04T03:06:47.967Z,1018.35
2024-02-04T03:07:51.367Z,1018.37
2024-02-04T03:08:54.662Z,1018.35
2024-02-04T03:09:58.097Z,1018.37
2024-02-04T03:11:01.647Z,1018.37
2024-02-04T03:12:05.174Z,1018.35
2024-02-04T03:13:09.512Z,1018.33
2024-02-04T03:14:12.851Z,1018.33
2024-02-04T03:15:16.244Z,1018.35
2024-02-04T03:16:19.536Z,1018.31
2024-02-04T03:17:23.221Z,1018.31
2024-02-04T03:18:26.596Z,1018.33
2024-02-04T03:19:30.047Z,1018.29
2024-02-04T03:20:33.372Z,1018.33
2024-02-04T03:21:36.755Z,1018.33
2024-02-04T03:22:42.014Z,1018.37
2024-02-04T03:23:45.227Z,1018.35
2024-02-04T03:24:48.588Z,1018.37
2024-02-04T03:25:51.860Z,1018.35
2024-02-04T03:26:55.121Z,1018.31
2024-02-04T03:27:58.528Z,1018.33
2024-02-04T03:29:01.834Z,1018.35
2024-02-04T03:30:05.622Z,1018.33
2024-02-04T03:31:09.076Z,1018.29
2024-02-04T03:32:12.403Z,1018.29
2024-02-04T03:33:16.013Z,1018.29
2024-02-04T03:34:19.928Z,1018.31
2024-02-04T03:35:23.263Z,1018.2
2024-02-04T03:36:26.573Z,1018.31
2024-02-04T03:37:29.976Z,1018.2
2024-02-04T03:38:34.735Z,1018.35
2024-02-04T03:39:38.077Z,1018.29
2024-02-04T03:40:41.425Z,1018.31
2024-02-04T03:41:44.681Z,1018.31
2024-02-04T03:42:48.066Z,1018.29
2024-02-04T03:43:51.354Z,1018.35
2024-02-04T03:44:54.565Z,1018.2
2024-02-04T03:45:57.906Z,1018.29
2024-02-04T03:47:01.219Z,1018.29
2024-02-04T03:48:04.821Z,1018.2
2024-02-04T03:49:08.420Z,1018.2
2024-02-04T03:50:11.817Z,1018.2
2024-02-04T03:51:15.072Z,1018.16
2024-02-04T03:52:18.335Z,1018.16
2024-02-04T03:53:21.599Z,1018.14
2024-02-04T03:54:24.877Z,1018.14
2024-02-04T03:56:31.427Z,1018.1
2024-02-04T04:01:47.937Z,1018.2
2024-02-04T04:02:51.344Z,1018.18
2024-02-04T04:03:54.719Z,1018.12
2024-02-04T04:04:59.176Z,1018.08
2024-02-04T04:06:02.907Z,1018
2024-02-04T04:07:06.521Z,1018
2024-02-04T04:08:09.843Z,1018.04
2024-02-04T04:09:13.100Z,1017.95
2024-02-04T04:10:16.297Z,1017.89
2024-02-04T04:11:19.649Z,1017.91
2024-02-04T04:12:23.017Z,1017.91
2024-02-04T04:14:29.533Z,1018.02
2024-02-04T04:15:32.973Z,1018.06
2024-02-04T04:17:39.656Z,1018.1
2024-02-04T04:18:43.226Z,1018.16
2024-02-04T04:19:48.463Z,1018.12
2024-02-04T04:20:51.704Z,1018.1
2024-02-04T04:21:55.138Z,1018.1
2024-02-04T04:22:58.486Z,1018.04
2024-02-04T04:24:01.785Z,1018.04
2024-02-04T04:25:05.370Z,1018.1
2024-02-04T04:26:08.655Z,1018.06
2024-02-04T04:27:11.938Z,1018.06
2024-02-04T04:28:15.234Z,1018.04
2024-02-04T04:29:18.529Z,1018.06
2024-02-04T04:30:21.728Z,1018.08
2024-02-04T04:31:25.071Z,1018.14
2024-02-04T04:35:38.912Z,1018.16
2024-02-04T04:36:42.186Z,1018.16
2024-02-04T04:37:45.500Z,1018.16
2024-02-04T04:38:48.749Z,1018.18
2024-02-04T04:39:52.132Z,1018.18
2024-02-04T04:40:55.406Z,1018.14
2024-02-04T04:41:58.643Z,1018.18
2024-02-04T04:43:02.099Z,1018.2
2024-02-04T04:44:05.455Z,1018.35
2024-02-04T04:45:08.703Z,1018.37
2024-02-04T04:46:12.120Z,1018.39
2024-02-04T04:47:15.438Z,1018.33
2024-02-04T04:48:19.226Z,1018.18
2024-02-04T04:49:23.108Z,1018.2
2024-02-04T04:51:29.772Z,1018.41
2024-02-04T04:52:33.092Z,1018.46
2024-02-04T04:54:39.662Z,1018.5
2024-02-04T04:55:43.021Z,1018.52
2024-02-04T04:56:46.256Z,1018.5
2024-02-04T04:57:49.684Z,1018.54
2024-02-04T04:58:53.509Z,1018.6
2024-02-04T04:59:56.846Z,1018.6
2024-02-04T05:01:00.347Z,1018.6
2024-02-04T05:02:03.888Z,1018.54
2024-02-04T05:03:07.250Z,1018.54
2024-02-04T05:04:10.853Z,1018.52
2024-02-04T05:05:14.379Z,1018.46
2024-02-04T05:06:17.681Z,1018.5
2024-02-04T05:07:21.371Z,1018.52
2024-02-04T05:08:24.731Z,1018.43
2024-02-04T05:10:31.242Z,1018.35
2024-02-04T05:12:38.201Z,1018.44
2024-02-04T05:13:41.568Z,1018.44
2024-02-04T05:14:44.802Z,1018.39
2024-02-04T05:15:48.315Z,1018.35
2024-02-04T05:16:51.586Z,1018.29
2024-02-04T05:17:55.182Z,1018.16
2024-02-04T05:18:58.874Z,1018.2
2024-02-04T05:20:02.546Z,1018.14
2024-02-04T05:21:05.881Z,1018.14
2024-02-04T05:22:09.312Z,1018.16
2024-02-04T05:23:12.506Z,1018.16
2024-02-04T05:24:17.707Z,1018.29
2024-02-04T05:25:20.944Z,1018.18
2024-02-04T05:26:24.211Z,1018.2
2024-02-04T05:28:31.285Z,1018.18
2024-02-04T05:30:37.803Z,1018.16
2024-02-04T05:31:41.325Z,1018.14
2024-02-04T05:32:44.638Z,1018.16
2024-02-04T05:33:48.267Z,1018.16
2024-02-04T05:34:52.114Z,1018.16
2024-02-04T05:35:55.394Z,1018.18
2024-02-04T05:36:58.872Z,1018.16
2024-02-04T05:38:02.117Z,1018.14
2024-02-04T05:39:05.374Z,1018.12
2024-02-04T05:40:09.019Z,1018.12
2024-02-04T05:41:12.358Z,1018.2
2024-02-04T05:42:15.661Z,1018.18
2024-02-04T05:43:19.169Z,1018.2
2024-02-04T05:44:22.485Z,1018.2
2024-02-04T05:46:29.872Z,1018.1
2024-02-04T05:47:33.646Z,1018.08
2024-02-04T05:49:41.237Z,1018.06
2024-02-04T05:50:44.953Z,1018.08
2024-02-04T05:51:48.335Z,1018.12
2024-02-04T05:52:51.600Z,1018.14
2024-02-04T05:53:54.798Z,1018.18
2024-02-04T05:55:05.593Z,1018.2
2024-02-04T05:56:09.035Z,1018.18
2024-02-04T05:57:12.273Z,1018.14
2024-02-04T05:58:15.706Z,1018.14
2024-02-04T05:59:18.952Z,1018.12
2024-02-04T06:00:22.195Z,1018.1
2024-02-04T06:02:28.884Z,1018.04
2024-02-04T06:03:32.620Z,1017.97
2024-02-04T06:05:39.432Z,1017.97
2024-02-04T06:06:42.882Z,1017.93
2024-02-04T06:07:46.143Z,1017.87
2024-02-04T06:08:49.383Z,1017.89
2024-02-04T06:09:52.741Z,1017.85
2024-02-04T06:10:56.027Z,1017.85
2024-02-04T06:11:59.353Z,1017.85
2024-02-04T06:13:02.739Z,1017.87
2024-02-04T06:14:06.102Z,1017.95
2024-02-04T06:15:09.352Z,1017.95
2024-02-04T06:16:12.757Z,1017.97
2024-02-04T06:17:15.993Z,1017.98
2024-02-04T06:18:19.311Z,1017.89
2024-02-04T06:19:22.847Z,1017.91
2024-02-04T06:21:29.707Z,1017.89
2024-02-04T06:22:32.930Z,1017.93
2024-02-04T06:25:43.694Z,1017.85
2024-02-04T06:26:47.216Z,1017.85
2024-02-04T06:27:50.856Z,1017.81
2024-02-04T06:28:54.592Z,1017.79
2024-02-04T06:29:58.193Z,1017.77
2024-02-04T06:31:03.069Z,1017.81
2024-02-04T06:32:06.323Z,1017.81
2024-02-04T06:33:10.089Z,1017.83
2024-02-04T06:34:13.557Z,1017.85
2024-02-04T06:35:16.956Z,1017.89
2024-02-04T06:36:20.244Z,1017.85
2024-02-04T06:37:23.666Z,1017.89
2024-02-04T06:39:30.326Z,1017.93
2024-02-04T06:41:39.113Z,1017.97
2024-02-04T06:42:42.598Z,1017.93
2024-02-04T06:43:47.540Z,1017.87
2024-02-04T06:44:52.767Z,1017.87
2024-02-04T06:45:58.296Z,1017.85
2024-02-04T06:47:01.486Z,1017.87
2024-02-04T06:48:05.017Z,1017.87
2024-02-04T06:49:08.657Z,1017.81
2024-02-04T06:50:12.072Z,1017.83
2024-02-04T06:51:15.560Z,1017.85
2024-02-04T06:52:18.975Z,1017.79
2024-02-04T06:53:22.269Z,1017.77
2024-02-04T06:55:28.822Z,1017.73
2024-02-04T06:56:32.054Z,1017.75
2024-02-04T06:58:39.518Z,1017.75
2024-02-04T06:59:42.788Z,1017.71
2024-02-04T07:00:46.321Z,1017.75
2024-02-04T07:01:49.912Z,1017.75
2024-02-04T07:02:53.430Z,1017.75
2024-02-04T07:03:57.084Z,1017.73
2024-02-04T07:05:00.395Z,1017.75
2024-02-04T07:06:03.916Z,1017.75
2024-02-04T07:07:07.601Z,1017.75
2024-02-04T07:08:11.320Z,1017.81
2024-02-04T07:09:14.592Z,1017.85
2024-02-04T07:10:18.015Z,1017.87
2024-02-04T07:11:21.347Z,1017.89
2024-02-04T07:13:27.883Z,1017.81
2024-02-04T07:14:31.111Z,1017.77
2024-02-04T07:16:37.589Z,1017.81
2024-02-04T07:17:40.872Z,1017.77
2024-02-04T07:18:44.535Z,1017.73
2024-02-04T07:19:48.100Z,1017.69
2024-02-04T07:20:51.420Z,1017.65
2024-02-04T07:21:54.788Z,1017.63
2024-02-04T07:22:59.683Z,1017.57
2024-02-04T07:24:02.950Z,1017.55
2024-02-04T07:25:06.757Z,1017.57
2024-02-04T07:26:10.077Z,1017.54
2024-02-04T07:27:13.337Z,1017.57
2024-02-04T07:28:16.755Z,1017.59
2024-02-04T07:29:19.975Z,1017.61
2024-02-04T07:30:23.202Z,1017.63
2024-02-04T07:32:29.714Z,1017.61
2024-02-04T07:35:42.839Z,1017.65
2024-02-04T07:36:46.016Z,1017.67
2024-02-04T07:37:49.357Z,1017.71
2024-02-04T07:38:56.860Z,1017.71
2024-02-04T07:40:00.278Z,1017.77
2024-02-04T07:41:03.634Z,1017.77
2024-02-04T07:42:06.944Z,1017.79
2024-02-04T07:43:10.675Z,1017.85
2024-02-04T07:44:13.965Z,1017.85
2024-02-04T07:45:17.270Z,1017.87
2024-02-04T07:46:20.612Z,1017.87
2024-02-04T07:49:30.833Z,1017.85
2024-02-04T07:51:37.425Z,1017.83
2024-02-04T07:52:45.646Z,1017.85
2024-02-04T07:53:48.854Z,1017.87
2024-02-04T07:54:52.197Z,1017.89
2024-02-04T07:55:55.501Z,1017.89
2024-02-04T07:56:58.756Z,1017.87
2024-02-04T07:58:02.118Z,1017.85
2024-02-04T07:59:06.063Z,1017.87
2024-02-04T08:00:09.258Z,1017.93
2024-02-04T08:01:12.827Z,1017.98
2024-02-04T08:02:16.239Z,1017.93
2024-02-04T08:03:19.712Z,1017.91
2024-02-04T08:04:23.554Z,1017.89
2024-02-04T08:06:30.396Z,1017.85
2024-02-04T08:08:37.072Z,1017.83
2024-02-04T08:09:40.619Z,1017.79
2024-02-04T08:10:44.224Z,1017.79
2024-02-04T08:11:47.506Z,1017.81
2024-02-04T08:12:52.579Z,1017.81
2024-02-04T08:13:55.873Z,1017.81
2024-02-04T08:14:59.061Z,1017.77
2024-02-04T08:16:02.416Z,1017.73
2024-02-04T08:17:05.735Z,1017.75
2024-02-04T08:18:09.410Z,1017.79
2024-02-04T08:19:12.988Z,1017.81
2024-02-04T08:20:16.587Z,1017.81
2024-02-04T08:21:19.943Z,1017.85
2024-02-04T08:22:23.168Z,1017.83
2024-02-04T08:24:29.629Z,1017.81
2024-02-04T08:27:39.654Z,1017.77
2024-02-04T08:28:43.063Z,1017.79
2024-02-04T08:29:46.319Z,1017.83
2024-02-04T08:30:49.741Z,1017.79
2024-02-04T08:31:53.117Z,1017.79
2024-02-04T08:32:56.530Z,1017.73
2024-02-04T08:34:00.169Z,1017.73
2024-02-04T08:35:04.096Z,1017.75
2024-02-04T08:36:07.507Z,1017.73
2024-02-04T08:37:11.074Z,1017.79
2024-02-04T08:38:14.354Z,1017.77
2024-02-04T08:39:17.607Z,1017.77
2024-02-04T08:40:20.989Z,1017.75
2024-02-04T08:43:30.775Z,1017.77
2024-02-04T08:46:46.912Z,1017.73
2024-02-04T08:47:50.352Z,1017.73
2024-02-04T08:48:53.856Z,1017.77
2024-02-04T08:49:57.460Z,1017.83
2024-02-04T08:51:00.842Z,1017.85
2024-02-04T08:52:05.967Z,1017.83
2024-02-04T08:53:09.245Z,1017.81
2024-02-04T08:54:12.497Z,1017.83
2024-02-04T08:55:15.904Z,1017.81
2024-02-04T08:56:19.188Z,1017.83
2024-02-04T08:57:22.520Z,1017.83
2024-02-04T08:59:28.986Z,1017.79
2024-02-04T09:00:32.323Z,1017.81
2024-02-04T09:02:39.302Z,1017.85
2024-02-04T09:03:42.744Z,1017.85
2024-02-04T09:04:46.434Z,1017.83
2024-02-04T09:05:49.709Z,1017.87
2024-02-04T09:06:53.270Z,1017.75
2024-02-04T09:07:56.829Z,1017.71
2024-02-04T09:09:00.159Z,1017.71
2024-02-04T09:10:03.943Z,1017.71
2024-02-04T09:11:07.298Z,1017.71
2024-02-04T09:12:10.866Z,1017.75
2024-02-04T09:13:14.653Z,1017.79
2024-02-04T09:14:18.029Z,1017.77
2024-02-04T09:15:21.453Z,1017.71
2024-02-04T09:17:28.565Z,1017.73
2024-02-04T09:18:32.459Z,1017.77
2024-02-04T09:21:52.401Z,1017.75
2024-02-04T09:22:55.963Z,1017.77
2024-02-04T09:23:59.290Z,1017.75
2024-02-04T09:25:03.287Z,1017.79
2024-02-04T09:26:06.690Z,1017.81
2024-02-04T09:27:10.167Z,1017.85
2024-02-04T09:28:13.702Z,1017.91
2024-02-04T09:29:17.177Z,1017.89
2024-02-04T09:30:20.644Z,1017.91
2024-02-04T09:32:28.338Z,1017.95
2024-02-04T09:35:41.743Z,1017.98
2024-02-04T09:36:45.485Z,1018
2024-02-04T09:37:49.066Z,1018
2024-02-04T09:38:52.610Z,1018
2024-02-04T09:39:56.312Z,1018.04
2024-02-04T09:41:00.009Z,1018.06
2024-02-04T09:42:03.973Z,1018.04
2024-02-04T09:43:09.254Z,1018.06
2024-02-04T09:44:19.805Z,1018.02
2024-02-04T09:47:30.051Z,1018
2024-02-04T09:50:41.371Z,1017.98
2024-02-04T09:51:47.115Z,1017.97
2024-02-04T09:52:53.805Z,1017.97
2024-02-04T09:53:57.335Z,1017.91
2024-02-04T09:55:01.142Z,1017.97
2024-02-04T09:56:04.575Z,1017.97
2024-02-04T09:57:07.895Z,1017.93
2024-02-04T09:58:11.522Z,1017.97
2024-02-04T09:59:17.120Z,1017.98
2024-02-04T10:00:20.568Z,1017.97
2024-02-04T10:02:28.339Z,1017.98
2024-02-04T10:03:32.029Z,1018.06
2024-02-04T10:05:39.472Z,1018.1
2024-02-04T10:06:43.747Z,1018.08
2024-02-04T10:07:47.517Z,1018.06
2024-02-04T10:08:57.088Z,1018
2024-02-04T10:10:01.033Z,1017.98
2024-02-04T10:11:04.584Z,1017.91
2024-02-04T10:12:08.045Z,1017.91
2024-02-04T10:13:12.929Z,1017.93
2024-02-04T10:14:18.832Z,1017.89
2024-02-04T10:15:22.082Z,1017.85
2024-02-04T10:17:30.798Z,1017.79
2024-02-04T10:19:37.801Z,1017.77
2024-02-04T10:20:41.103Z,1017.75
2024-02-04T10:21:44.483Z,1017.79
2024-02-04T10:22:49.816Z,1017.77
2024-02-04T10:23:53.134Z,1017.79
2024-02-04T10:24:56.567Z,1017.79
2024-02-04T10:26:01.221Z,1017.79
2024-02-04T10:27:05.974Z,1017.75
2024-02-04T10:28:09.328Z,1017.79
2024-02-04T10:29:12.619Z,1017.81
2024-02-04T10:30:15.906Z,1017.77
2024-02-04T10:31:19.447Z,1017.79
2024-02-04T10:35:38.516Z,1017.79
2024-02-04T10:36:41.759Z,1017.77
2024-02-04T10:37:45.054Z,1017.71
2024-02-04T10:38:50.239Z,1017.71
2024-02-04T10:39:53.581Z,1017.71
2024-02-04T10:40:58.852Z,1017.75
2024-02-04T10:42:02.402Z,1017.73
2024-02-04T10:43:05.947Z,1017.73
2024-02-04T10:44:09.204Z,1017.73
2024-02-04T10:45:12.878Z,1017.71
2024-02-04T10:46:16.313Z,1017.71
2024-02-04T10:47:19.620Z,1017.77
2024-02-04T10:49:26.416Z,1017.75
2024-02-04T10:50:29.695Z,1017.71
2024-02-04T10:52:39.163Z,1017.73
2024-02-04T10:53:42.363Z,1017.73
2024-02-04T10:54:45.735Z,1017.71
2024-02-04T10:55:49.145Z,1017.71
2024-02-04T10:56:52.452Z,1017.71
2024-02-04T10:57:55.837Z,1017.77
2024-02-04T10:58:59.077Z,1017.75
2024-02-04T11:00:02.262Z,1017.75
2024-02-04T11:01:05.835Z,1017.71
2024-02-04T11:02:09.404Z,1017.71
2024-02-04T11:03:12.806Z,1017.77
2024-02-04T11:04:16.611Z,1017.77
2024-02-04T11:05:20.128Z,1017.75
2024-02-04T11:07:27.015Z,1017.67
2024-02-04T11:08:30.510Z,1017.61
2024-02-04T11:10:37.309Z,1017.57
2024-02-04T11:11:40.511Z,1017.61
2024-02-04T11:12:45.950Z,1017.57
2024-02-04T11:13:49.150Z,1017.65
2024-02-04T11:14:52.439Z,1017.67
2024-02-04T11:15:55.843Z,1017.69
2024-02-04T11:16:59.091Z,1017.73
2024-02-04T11:18:02.598Z,1017.73
2024-02-04T11:19:08.211Z,1017.73
2024-02-04T11:20:11.728Z,1017.77
2024-02-04T11:21:15.114Z,1017.69
2024-02-04T11:22:18.296Z,1017.61
2024-02-04T11:23:21.511Z,1017.61
2024-02-04T11:25:27.913Z,1017.65
2024-02-04T11:26:31.176Z,1017.67
2024-02-04T11:29:42.657Z,1017.65
2024-02-04T11:30:48.204Z,1017.63
2024-02-04T11:31:52.311Z,1017.67
2024-02-04T11:32:56.167Z,1017.67
2024-02-04T11:34:00.424Z,1017.67
2024-02-04T11:35:04.765Z,1017.61
2024-02-04T11:36:09.267Z,1017.63
2024-02-04T11:37:12.967Z,1017.57
2024-02-04T11:38:16.272Z,1017.55
2024-02-04T11:39:19.904Z,1017.54
2024-02-04T11:41:26.811Z,1017.5
2024-02-04T11:42:30.436Z,1017.5
2024-02-04T11:45:41.212Z,1017.34
2024-02-04T11:46:45.105Z,1017.3
2024-02-04T11:47:48.724Z,1017.34
2024-02-04T11:48:52.615Z,1017.36
2024-02-04T11:49:56.853Z,1017.34
2024-02-04T11:51:00.629Z,1017.36
2024-02-04T11:52:05.185Z,1017.38
2024-02-04T11:53:08.783Z,1017.36
2024-02-04T11:54:12.039Z,1017.32
2024-02-04T11:55:15.864Z,1017.2
2024-02-04T11:56:19.343Z,1017.2
2024-02-04T11:58:26.293Z,1017.14
2024-02-04T11:59:29.562Z,1017.09
2024-02-04T12:01:36.590Z,1017.03
2024-02-04T12:02:40.015Z,1017.05
2024-02-04T12:03:43.446Z,1017.07
2024-02-04T12:04:46.938Z,1017.05
2024-02-04T12:05:50.164Z,1017.07
2024-02-04T12:06:53.737Z,1017.03
2024-02-04T12:07:57.448Z,1017.05
2024-02-04T12:09:00.860Z,1017.07
2024-02-04T12:10:04.654Z,1016.99
2024-02-04T12:11:07.943Z,1017.01
2024-02-04T12:12:11.125Z,1016.91
2024-02-04T12:13:14.543Z,1016.95
2024-02-04T12:14:18.033Z,1016.95
2024-02-04T12:15:21.303Z,1016.95
2024-02-04T12:17:27.769Z,1017.01
2024-02-04T12:22:44.593Z,1017.01
2024-02-04T12:23:49.353Z,1016.97
2024-02-04T12:24:52.894Z,1016.99
2024-02-04T12:25:56.222Z,1016.89
2024-02-04T12:26:59.481Z,1016.83
2024-02-04T12:28:02.901Z,1016.85
2024-02-04T12:29:06.335Z,1016.89
2024-02-04T12:30:09.587Z,1016.87
2024-02-04T12:31:13.150Z,1016.95
2024-02-04T12:32:16.716Z,1016.95
2024-02-04T12:33:20.370Z,1016.99
2024-02-04T12:35:27.130Z,1016.89
2024-02-04T12:36:30.541Z,1016.95
2024-02-04T12:39:43.786Z,1016.89
2024-02-04T12:40:47.149Z,1016.95
2024-02-04T12:41:50.363Z,1016.89
2024-02-04T12:42:53.820Z,1016.87
2024-02-04T12:43:57.104Z,1016.81
2024-02-04T12:45:00.334Z,1016.77
2024-02-04T12:46:03.864Z,1016.77
2024-02-04T12:47:07.216Z,1016.75
2024-02-04T12:48:10.657Z,1016.79
2024-02-04T12:49:14.198Z,1016.71
2024-02-04T12:50:17.763Z,1016.73
2024-02-04T12:51:21.113Z,1016.73
2024-02-04T12:54:30.687Z,1016.69
2024-02-04T12:57:40.990Z,1016.75
2024-02-04T12:58:44.246Z,1016.69
2024-02-04T12:59:47.454Z,1016.77
2024-02-04T13:00:51.012Z,1016.75
2024-02-04T13:01:54.696Z,1016.75
2024-02-04T13:03:04.365Z,1016.69
2024-02-04T13:04:08.956Z,1016.75
2024-02-04T13:05:12.426Z,1016.77
2024-02-04T13:06:15.802Z,1016.77
2024-02-04T13:07:19.959Z,1016.77
2024-02-04T13:09:26.658Z,1016.73
2024-02-04T13:10:29.856Z,1016.67
2024-02-04T13:12:37.970Z,1016.67
2024-02-04T13:13:41.273Z,1016.71
2024-02-04T13:14:44.537Z,1016.69
2024-02-04T13:15:47.918Z,1016.65
2024-02-04T13:16:51.215Z,1016.75
2024-02-04T13:17:54.654Z,1016.75
2024-02-04T13:18:58.144Z,1016.73
2024-02-04T13:20:01.883Z,1016.73
2024-02-04T13:21:05.238Z,1016.73
2024-02-04T13:22:09.106Z,1016.69
2024-02-04T13:23:12.448Z,1016.64
2024-02-04T13:24:17.377Z,1016.64
2024-02-04T13:25:20.984Z,1016.64
2024-02-04T13:29:34.271Z,1016.65
2024-02-04T13:30:37.761Z,1016.65
2024-02-04T13:31:41.475Z,1016.64
2024-02-04T13:32:45.249Z,1016.64
2024-02-04T13:33:48.796Z,1016.65
2024-02-04T13:35:05.609Z,1016.62
2024-02-04T13:36:10.123Z,1016.56
2024-02-04T13:37:13.690Z,1016.62
2024-02-04T13:38:16.975Z,1016.58
2024-02-04T13:39:20.224Z,1016.62
2024-02-04T13:41:26.707Z,1016.56
2024-02-04T13:43:34.892Z,1016.56
2024-02-04T13:44:38.297Z,1016.48
2024-02-04T13:45:43.196Z,1016.46
2024-02-04T13:46:46.463Z,1016.44
2024-02-04T13:47:49.849Z,1016.4
2024-02-04T13:48:53.349Z,1016.4
2024-02-04T13:50:01.399Z,1016.42
2024-02-04T13:51:04.759Z,1016.46
2024-02-04T13:52:08.187Z,1016.44
2024-02-04T13:53:11.546Z,1016.48
2024-02-04T13:54:19.258Z,1016.54
2024-02-04T13:56:25.726Z,1016.6
2024-02-04T13:57:29.048Z,1016.62
2024-02-04T13:59:35.626Z,1016.67
2024-02-04T14:00:39.171Z,1016.69
2024-02-04T14:01:44.388Z,1016.71
2024-02-04T14:02:47.694Z,1016.73
2024-02-04T14:03:51.276Z,1016.71
2024-02-04T14:04:54.909Z,1016.71
2024-02-04T14:05:58.340Z,1016.73
2024-02-04T14:07:01.756Z,1016.77
2024-02-04T14:08:05.041Z,1016.79
2024-02-04T14:09:08.332Z,1016.75
2024-02-04T14:10:11.894Z,1016.79
2024-02-04T14:11:15.237Z,1016.85
2024-02-04T14:12:18.458Z,1016.77
2024-02-04T14:15:34.538Z,1016.75
2024-02-04T14:16:37.839Z,1016.79
2024-02-04T14:17:41.155Z,1016.71
2024-02-04T14:18:44.578Z,1016.69
2024-02-04T14:19:48.155Z,1016.71
2024-02-04T14:20:51.497Z,1016.73
2024-02-04T14:21:54.828Z,1016.79
2024-02-04T14:22:58.107Z,1016.75
2024-02-04T14:24:01.303Z,1016.79
2024-02-04T14:25:04.683Z,1016.77
2024-02-04T14:26:07.963Z,1016.75
2024-02-04T14:27:11.236Z,1016.77
2024-02-04T14:28:14.710Z,1016.75
2024-02-04T14:29:18.024Z,1016.83
2024-02-04T14:31:24.977Z,1016.81
2024-02-04T14:32:28.445Z,1016.83
2024-02-04T14:34:37.912Z,1016.81
2024-02-04T14:35:41.377Z,1016.81
2024-02-04T14:36:44.791Z,1016.75
2024-02-04T14:37:48.124Z,1016.73
2024-02-04T14:38:51.393Z,1016.77
2024-02-04T14:39:54.790Z,1016.77
2024-02-04T14:40:58.082Z,1016.75
2024-02-04T14:42:01.321Z,1016.73
2024-02-04T14:43:04.782Z,1016.73
2024-02-04T14:44:08.170Z,1016.73
2024-02-04T14:45:11.544Z,1016.75
2024-02-04T14:46:15.196Z,1016.71
2024-02-04T14:47:18.648Z,1016.69
2024-02-04T14:49:26.239Z,1016.71
2024-02-04T14:50:29.606Z,1016.65
2024-02-04T14:52:37.944Z,1016.67
2024-02-04T14:53:41.268Z,1016.64
2024-02-04T14:54:44.673Z,1016.64
2024-02-04T14:55:47.927Z,1016.67
2024-02-04T14:56:51.165Z,1016.65
2024-02-04T14:57:54.532Z,1016.64